Hovedside
METAR-TAF:

METAR-TAF

Lufthavner :

Mehamn lufthavn

Gamvik, Norge

breddegrad: 71-02N, lengdegrad: 027-50E, høyde over havet: 1 m

Gjeldene værobservasjon

Denne rapporten ble laget for 51 minutter siden, klokken 04:50 UTC
Vind 14 kt fra Nord
Temperatur 0°C
Luftfuktighet 74%
Trykk 1008 hPa
Sikt 10 km eller mer
Få skyer i en høyde av 2400 ft
Spredte skyer i en høyde av 3800 ft

METAR: ENMH 240450Z 35014KT 9999 FEW024 SCT038 00/M04 Q1008

Tid: 07:41 (05:41 UTC)


TAF: fraværende

Værobservasjoner og værvarsel for over 4000 flyplasser (METAR- og TAF-rapporter).

Tilgjengelige stasjoner er representert av de røde og gule prikkene på kartet.

Hold musepekeren over prikken for å se navnet på stasjonen.

Klikk så for å se værobservasjoner og -varsler.

For å forandre kartet kan du klikke på den grønne knappen med svart kryss for å zoome inn, på den grønne knappen med strek for å zoome ut, eller på de grønne pilene for å se tilstøtende kart.


METAR-TAF: